createdAt,value
2019-03-26T00:02:14.992Z,7.60
2019-03-26T00:04:44.781Z,7.70
2019-03-26T00:07:14.481Z,7.80
2019-03-26T00:09:44.202Z,7.60
2019-03-26T00:12:13.965Z,7.60
2019-03-26T00:14:43.695Z,7.60
2019-03-26T00:17:13.455Z,7.50
2019-03-26T00:19:43.253Z,7.40
2019-03-26T00:22:13.038Z,7.50
2019-03-26T00:24:42.879Z,7.50
2019-03-26T00:27:12.572Z,7.50
2019-03-26T00:29:42.387Z,7.50
2019-03-26T00:32:12.098Z,7.60
2019-03-26T00:34:41.825Z,7.60
2019-03-26T00:37:11.572Z,7.50
2019-03-26T00:39:41.374Z,7.50
2019-03-26T00:42:11.181Z,7.50
2019-03-26T00:44:41.036Z,7.50
2019-03-26T00:47:10.809Z,7.50
2019-03-26T00:49:40.751Z,7.60
2019-03-26T00:52:10.481Z,7.60
2019-03-26T00:54:40.213Z,7.70
2019-03-26T00:57:10.066Z,7.70
2019-03-26T00:59:41.088Z,7.60
2019-03-26T01:02:11.133Z,7.70
2019-03-26T01:04:40.989Z,7.60
2019-03-26T01:07:10.855Z,7.60
2019-03-26T01:09:40.736Z,7.60
2019-03-26T01:12:10.589Z,7.50
2019-03-26T01:14:40.322Z,7.60
2019-03-26T01:17:10.153Z,7.60
2019-03-26T01:19:39.859Z,7.50
2019-03-26T01:22:09.699Z,7.50
2019-03-26T01:24:39.483Z,7.50
2019-03-26T01:27:09.238Z,7.50
2019-03-26T01:29:39.085Z,7.50
2019-03-26T01:32:08.792Z,7.50
2019-03-26T01:34:45.817Z,7.50
2019-03-26T01:37:10.186Z,7.60
2019-03-26T01:39:39.829Z,7.60
2019-03-26T01:42:09.793Z,7.50
2019-03-26T01:44:39.488Z,7.60
2019-03-26T01:47:09.255Z,7.60
2019-03-26T01:49:39.043Z,7.60
2019-03-26T01:52:08.743Z,7.50
2019-03-26T01:54:38.468Z,7.40
2019-03-26T01:57:08.183Z,7.30
2019-03-26T01:59:37.952Z,7.30
2019-03-26T02:02:07.653Z,7.30
2019-03-26T02:04:37.364Z,7.40
2019-03-26T02:07:07.156Z,7.50
2019-03-26T02:09:37.071Z,7.50
2019-03-26T02:12:07.044Z,7.50
2019-03-26T02:14:36.746Z,7.50
2019-03-26T02:17:06.487Z,7.60
2019-03-26T02:19:36.636Z,7.60
2019-03-26T02:22:06.345Z,7.60
2019-03-26T02:24:35.951Z,7.60
2019-03-26T02:27:05.657Z,7.60
2019-03-26T02:29:35.457Z,7.50
2019-03-26T02:32:05.205Z,7.50
2019-03-26T02:34:35.034Z,7.60
2019-03-26T02:37:04.762Z,7.60
2019-03-26T02:39:34.500Z,7.50
2019-03-26T02:42:04.201Z,7.40
2019-03-26T02:44:33.925Z,7.30
2019-03-26T02:47:04.707Z,7.30
2019-03-26T02:49:34.454Z,7.40
2019-03-26T02:52:04.213Z,7.40
2019-03-26T02:54:33.928Z,7.40
2019-03-26T02:57:03.635Z,7.40
2019-03-26T02:59:33.501Z,7.40
2019-03-26T03:02:03.336Z,7.50
2019-03-26T03:04:33.120Z,7.40
2019-03-26T03:07:02.925Z,7.50
2019-03-26T03:09:32.720Z,7.50
2019-03-26T03:12:02.544Z,7.50
2019-03-26T03:14:32.267Z,7.50
2019-03-26T03:17:02.003Z,7.50
2019-03-26T03:19:31.937Z,7.50
2019-03-26T03:22:01.812Z,7.50
2019-03-26T03:24:31.519Z,7.50
2019-03-26T03:27:01.337Z,7.50
2019-03-26T03:29:31.126Z,7.50
2019-03-26T03:32:00.894Z,7.50
2019-03-26T03:34:30.678Z,7.60
2019-03-26T03:37:00.502Z,7.60
2019-03-26T03:39:30.203Z,7.60
2019-03-26T03:41:59.992Z,7.70
2019-03-26T03:44:29.783Z,7.70
2019-03-26T03:46:59.572Z,7.60
2019-03-26T03:49:30.926Z,7.60
2019-03-26T03:52:03.526Z,7.70
2019-03-26T03:54:34.325Z,7.60
2019-03-26T03:57:04.660Z,7.50
2019-03-26T03:59:35.170Z,7.50
2019-03-26T04:02:04.972Z,7.60
2019-03-26T04:04:34.661Z,7.50
2019-03-26T04:07:04.483Z,7.50
2019-03-26T04:09:34.245Z,7.50
2019-03-26T04:12:03.946Z,7.50
2019-03-26T04:14:33.636Z,7.50
2019-03-26T04:17:03.332Z,7.50
2019-03-26T04:19:33.131Z,7.30
2019-03-26T04:22:02.827Z,7.40
2019-03-26T04:24:32.626Z,7.40
2019-03-26T04:27:02.607Z,7.30
2019-03-26T04:29:32.469Z,7.20
2019-03-26T04:32:02.119Z,7.30
2019-03-26T04:34:31.849Z,7.30
2019-03-26T04:37:01.650Z,7.40
2019-03-26T04:39:31.338Z,7.30
2019-03-26T04:42:01.083Z,7.40
2019-03-26T04:44:30.885Z,7.30
2019-03-26T04:47:00.677Z,7.30
2019-03-26T04:49:30.440Z,7.40
2019-03-26T04:52:00.159Z,7.30
2019-03-26T04:54:29.955Z,7.30
2019-03-26T04:56:59.717Z,7.20
2019-03-26T04:59:29.390Z,7.20
2019-03-26T05:01:59.187Z,7.20
2019-03-26T05:04:28.939Z,7.30
2019-03-26T05:06:58.615Z,7.30
2019-03-26T05:09:28.346Z,7.30
2019-03-26T05:11:58.051Z,7.30
2019-03-26T05:14:28.938Z,7.40
2019-03-26T05:16:58.878Z,7.40
2019-03-26T05:19:28.664Z,7.40
2019-03-26T05:21:58.400Z,7.40
2019-03-26T05:24:28.101Z,7.30
2019-03-26T05:26:57.851Z,7.50
2019-03-26T05:29:27.518Z,7.40
2019-03-26T05:31:57.307Z,7.40
2019-03-26T05:34:27.019Z,7.40
2019-03-26T05:36:56.737Z,7.40
2019-03-26T05:39:26.554Z,7.40
2019-03-26T05:41:56.376Z,7.40
2019-03-26T05:44:26.090Z,7.40
2019-03-26T05:46:55.835Z,7.50
2019-03-26T05:49:26.658Z,7.50
2019-03-26T05:51:56.385Z,7.50
2019-03-26T05:54:26.171Z,7.50
2019-03-26T05:56:55.886Z,7.30
2019-03-26T05:59:25.591Z,7.40
2019-03-26T06:01:55.394Z,7.40
2019-03-26T06:04:25.157Z,7.30
2019-03-26T06:07:04.681Z,7.30
2019-03-26T06:09:26.573Z,7.30
2019-03-26T06:11:56.377Z,7.30
2019-03-26T06:14:26.140Z,7.30
2019-03-26T06:16:58.228Z,7.30
2019-03-26T06:19:27.935Z,7.40
2019-03-26T06:21:57.817Z,7.50
2019-03-26T06:24:29.221Z,7.50
2019-03-26T06:26:59.109Z,7.50
2019-03-26T06:29:28.801Z,7.50
2019-03-26T06:31:59.649Z,7.50
2019-03-26T06:34:32.811Z,7.60
2019-03-26T06:37:02.575Z,7.50
2019-03-26T06:39:32.432Z,7.50
2019-03-26T06:42:02.193Z,7.50
2019-03-26T06:44:31.941Z,7.50
2019-03-26T06:47:01.789Z,7.50
2019-03-26T06:49:31.501Z,7.60
2019-03-26T06:52:01.328Z,7.50
2019-03-26T06:54:31.094Z,7.40
2019-03-26T06:57:02.164Z,7.50
2019-03-26T06:59:33.104Z,7.50
2019-03-26T07:02:03.236Z,7.50
2019-03-26T07:04:33.067Z,7.50
2019-03-26T07:07:02.770Z,7.50
2019-03-26T07:09:32.566Z,7.50
2019-03-26T07:12:04.207Z,7.50
2019-03-26T07:14:33.896Z,7.50
2019-03-26T07:17:03.722Z,7.30
2019-03-26T07:19:33.436Z,7.40
2019-03-26T07:22:03.103Z,7.50
2019-03-26T07:24:32.799Z,7.40
2019-03-26T07:27:02.620Z,7.60
2019-03-26T07:29:32.419Z,7.60
2019-03-26T07:32:02.132Z,7.60
2019-03-26T07:34:32.084Z,7.60
2019-03-26T07:37:02.243Z,7.60
2019-03-26T07:39:32.127Z,7.60
2019-03-26T07:42:01.815Z,7.60
2019-03-26T07:44:31.681Z,7.70
2019-03-26T07:47:01.507Z,7.70
2019-03-26T07:49:31.314Z,7.70
2019-03-26T07:52:01.152Z,7.70
2019-03-26T07:54:32.634Z,7.80
2019-03-26T07:57:02.370Z,7.80
2019-03-26T07:59:32.077Z,7.70
2019-03-26T08:02:01.841Z,7.80
2019-03-26T08:04:32.817Z,7.80
2019-03-26T08:07:02.503Z,7.90
2019-03-26T08:09:32.733Z,8.00
2019-03-26T08:12:02.713Z,8.10
2019-03-26T08:14:32.581Z,8.10
2019-03-26T08:17:02.530Z,8.10
2019-03-26T08:19:32.471Z,8.10
2019-03-26T08:22:02.187Z,8.30
2019-03-26T08:24:31.917Z,8.30
2019-03-26T08:27:01.789Z,8.40
2019-03-26T08:29:32.334Z,8.50
2019-03-26T08:32:02.227Z,8.50
2019-03-26T08:34:32.223Z,8.50
2019-03-26T08:37:02.271Z,8.70
2019-03-26T08:39:32.145Z,9.10
2019-03-26T08:42:02.005Z,9.60
2019-03-26T08:44:31.867Z,10.20
2019-03-26T08:47:01.736Z,10.80
2019-03-26T08:49:31.548Z,11.00
2019-03-26T08:52:01.314Z,11.40
2019-03-26T08:54:31.253Z,11.80
2019-03-26T08:57:03.912Z,12.20
2019-03-26T08:59:33.876Z,11.90
2019-03-26T09:02:07.983Z,11.80
2019-03-26T09:04:37.765Z,12.50
2019-03-26T09:07:10.825Z,13.10
2019-03-26T09:09:39.962Z,13.40
2019-03-26T09:12:09.778Z,13.30
2019-03-26T09:14:41.590Z,12.90
2019-03-26T09:17:11.529Z,12.90
2019-03-26T09:19:41.335Z,12.70
2019-03-26T09:22:11.060Z,12.40
2019-03-26T09:24:41.035Z,12.10
2019-03-26T09:27:10.813Z,12.00
2019-03-26T09:29:40.619Z,11.60
2019-03-26T09:32:10.921Z,11.40
2019-03-26T09:34:40.841Z,11.10
2019-03-26T09:37:10.567Z,10.70
2019-03-26T09:39:40.361Z,10.50
2019-03-26T09:42:10.095Z,10.30
2019-03-26T09:44:39.873Z,10.30
2019-03-26T09:47:16.216Z,10.10
2019-03-26T09:49:41.065Z,10.20
2019-03-26T09:52:10.859Z,10.60
2019-03-26T09:54:40.663Z,11.00
2019-03-26T09:57:10.483Z,11.50
2019-03-26T09:59:40.288Z,12.00
2019-03-26T10:02:09.981Z,11.70
2019-03-26T10:04:39.761Z,11.60
2019-03-26T10:07:20.900Z,11.50
2019-03-26T10:09:41.231Z,11.10
2019-03-26T10:12:10.933Z,10.90
2019-03-26T10:14:40.654Z,10.60
2019-03-26T10:17:10.474Z,10.60
2019-03-26T10:19:40.182Z,10.40
2019-03-26T10:22:09.961Z,10.30
2019-03-26T10:24:39.736Z,10.30
2019-03-26T10:27:09.508Z,10.10
2019-03-26T10:29:40.084Z,10.00
2019-03-26T10:32:11.789Z,10.10
2019-03-26T10:34:41.616Z,10.00
2019-03-26T10:37:11.476Z,9.90
2019-03-26T10:39:41.225Z,9.90
2019-03-26T10:42:11.014Z,9.80
2019-03-26T10:44:40.774Z,9.90
2019-03-26T10:47:10.602Z,10.00
2019-03-26T10:49:40.317Z,9.90
2019-03-26T10:52:10.639Z,10.00
2019-03-26T10:54:40.333Z,10.10
2019-03-26T10:57:10.143Z,10.20
2019-03-26T10:59:39.886Z,10.20
2019-03-26T11:02:09.842Z,10.20
2019-03-26T11:04:39.695Z,10.20
2019-03-26T11:07:16.065Z,10.10
2019-03-26T11:09:45.851Z,10.10
2019-03-26T11:12:15.881Z,10.00
2019-03-26T11:14:46.692Z,9.90
2019-03-26T11:17:19.823Z,10.00
2019-03-26T11:19:53.137Z,9.90
2019-03-26T11:22:23.235Z,9.90
2019-03-26T11:24:53.240Z,9.90
2019-03-26T11:27:23.523Z,9.80
2019-03-26T11:29:53.277Z,9.90
2019-03-26T11:32:23.290Z,10.00
2019-03-26T11:34:53.305Z,10.10
2019-03-26T11:37:23.211Z,10.10
2019-03-26T11:39:53.087Z,10.30
2019-03-26T11:42:23.037Z,10.30
2019-03-26T11:44:54.507Z,10.30
2019-03-26T11:47:24.467Z,10.30
2019-03-26T11:49:54.349Z,10.50
2019-03-26T11:52:24.251Z,10.40
2019-03-26T11:54:53.961Z,10.20
2019-03-26T11:57:23.750Z,10.20
2019-03-26T11:59:53.605Z,10.30
2019-03-26T12:02:23.553Z,10.20
2019-03-26T12:04:55.207Z,10.40
2019-03-26T12:07:24.881Z,10.40
2019-03-26T12:09:55.855Z,10.60
2019-03-26T12:12:26.271Z,10.50
2019-03-26T12:14:56.234Z,10.60
2019-03-26T12:17:26.009Z,10.50
2019-03-26T12:19:56.458Z,10.20
2019-03-26T12:22:27.388Z,10.10
2019-03-26T12:24:58.855Z,9.80
2019-03-26T12:27:28.661Z,9.70
2019-03-26T12:29:58.390Z,9.50
2019-03-26T12:32:28.403Z,9.40
2019-03-26T12:35:00.409Z,9.50
2019-03-26T12:37:30.237Z,9.60
2019-03-26T12:40:01.085Z,9.80
2019-03-26T12:42:31.057Z,10.00
2019-03-26T12:45:00.981Z,10.30
2019-03-26T12:47:31.492Z,10.80
2019-03-26T12:50:03.379Z,11.10
2019-03-26T12:52:33.187Z,11.30
2019-03-26T12:55:16.901Z,11.50
2019-03-26T12:57:46.787Z,11.40
2019-03-26T13:00:16.717Z,11.60
2019-03-26T13:02:46.706Z,11.60
2019-03-26T13:05:16.435Z,11.40
2019-03-26T13:07:46.336Z,11.20
2019-03-26T13:10:16.066Z,11.20
2019-03-26T13:12:45.906Z,11.00
2019-03-26T13:15:15.706Z,10.90
2019-03-26T13:17:52.894Z,10.70
2019-03-26T13:20:23.288Z,10.40
2019-03-26T13:22:53.091Z,10.20
2019-03-26T13:25:23.009Z,9.90
2019-03-26T13:27:53.040Z,9.70
2019-03-26T13:30:23.202Z,9.60
2019-03-26T13:32:53.100Z,9.50
2019-03-26T13:35:23.396Z,9.40
2019-03-26T13:37:53.204Z,9.40
2019-03-26T13:40:27.603Z,9.40
2019-03-26T13:42:59.575Z,9.40
2019-03-26T13:45:32.759Z,9.40
2019-03-26T13:48:03.455Z,9.40
2019-03-26T13:50:33.798Z,9.40
2019-03-26T13:53:03.934Z,9.40
2019-03-26T13:55:34.508Z,9.40
2019-03-26T13:58:06.528Z,9.50
2019-03-26T14:00:40.663Z,9.60
2019-03-26T14:03:10.465Z,9.70
2019-03-26T14:05:40.364Z,9.80
2019-03-26T14:08:10.183Z,9.90
2019-03-26T14:11:16.039Z,9.90
2019-03-26T14:13:57.992Z,9.80
2019-03-26T14:16:27.875Z,9.80
2019-03-26T14:18:57.723Z,9.80
2019-03-26T14:21:27.485Z,9.70
2019-03-26T14:23:57.257Z,9.60
2019-03-26T14:26:26.954Z,9.60
2019-03-26T14:28:56.633Z,9.60
2019-03-26T14:31:26.394Z,9.70
2019-03-26T14:33:57.152Z,9.90
2019-03-26T14:36:28.375Z,9.90
2019-03-26T14:38:59.124Z,10.00
2019-03-26T14:41:31.021Z,9.90
2019-03-26T14:44:01.256Z,9.80
2019-03-26T14:46:31.489Z,9.80
2019-03-26T14:49:01.332Z,9.70
2019-03-26T14:51:31.172Z,9.60
2019-03-26T14:54:01.257Z,9.70
2019-03-26T14:56:31.055Z,9.80
2019-03-26T14:59:00.871Z,9.80
2019-03-26T15:04:31.166Z,9.70
2019-03-26T15:07:03.000Z,9.60
2019-03-26T15:09:33.052Z,9.50
2019-03-26T15:12:05.531Z,9.50
2019-03-26T15:14:35.284Z,9.40
2019-03-26T15:17:05.679Z,9.40
2019-03-26T15:19:35.516Z,9.50
2019-03-26T15:22:05.305Z,9.60
2019-03-26T15:24:38.372Z,9.50
2019-03-26T15:27:08.153Z,9.60
2019-03-26T15:29:40.247Z,9.70
2019-03-26T15:32:11.145Z,9.80
2019-03-26T15:34:41.212Z,9.80
2019-03-26T15:37:11.060Z,9.80
2019-03-26T15:39:40.942Z,9.80
2019-03-26T15:42:10.787Z,9.90
2019-03-26T15:44:41.016Z,9.80
2019-03-26T15:47:14.244Z,9.80
2019-03-26T15:49:44.830Z,9.80
2019-03-26T15:52:14.691Z,9.80
2019-03-26T15:54:44.671Z,9.70
2019-03-26T15:57:14.652Z,9.80
2019-03-26T15:59:44.450Z,9.80
2019-03-26T16:02:15.915Z,9.70
2019-03-26T16:04:45.926Z,9.70
2019-03-26T16:07:15.948Z,9.60
2019-03-26T16:09:46.134Z,9.60
2019-03-26T16:12:19.145Z,9.60
2019-03-26T16:14:49.000Z,9.50
2019-03-26T16:17:19.480Z,9.40
2019-03-26T16:19:49.243Z,9.30
2019-03-26T16:22:19.193Z,9.30
2019-03-26T16:24:53.280Z,9.40
2019-03-26T16:27:22.488Z,9.30
2019-03-26T16:29:52.421Z,9.30
2019-03-26T16:32:23.391Z,9.30
2019-03-26T16:34:53.231Z,9.30
2019-03-26T16:37:24.362Z,9.30
2019-03-26T16:39:54.271Z,9.30
2019-03-26T16:42:24.685Z,9.20
2019-03-26T16:44:57.751Z,9.20
2019-03-26T16:47:27.551Z,9.20
2019-03-26T16:49:57.444Z,9.20
2019-03-26T16:52:29.751Z,9.20
2019-03-26T16:54:59.716Z,9.20
2019-03-26T16:57:29.671Z,9.30
2019-03-26T16:59:59.509Z,9.30
2019-03-26T17:02:29.363Z,9.20
2019-03-26T17:04:59.161Z,9.30
2019-03-26T17:07:29.057Z,9.30
2019-03-26T17:09:59.197Z,9.40
2019-03-26T17:12:29.078Z,9.30
2019-03-26T17:14:59.559Z,9.40
2019-03-26T17:17:29.489Z,9.30
2019-03-26T17:19:59.541Z,9.30
2019-03-26T17:22:31.127Z,9.20
2019-03-26T17:25:00.960Z,9.20
2019-03-26T17:27:30.942Z,9.20
2019-03-26T17:30:00.845Z,9.10
2019-03-26T17:32:30.678Z,9.10
2019-03-26T17:35:01.126Z,9.10
2019-03-26T17:37:33.584Z,9.20
2019-03-26T17:40:05.266Z,9.10
2019-03-26T17:42:35.328Z,9.20
2019-03-26T17:45:05.459Z,9.10
2019-03-26T17:47:35.444Z,9.20
2019-03-26T17:50:05.659Z,9.20
2019-03-26T17:52:35.857Z,9.20
2019-03-26T17:55:09.395Z,9.20
2019-03-26T17:57:39.124Z,9.20
2019-03-26T18:00:11.422Z,9.10
2019-03-26T18:02:41.219Z,9.10
2019-03-26T18:05:28.830Z,9.20
2019-03-26T18:07:59.346Z,9.20
2019-03-26T18:10:31.456Z,9.20
2019-03-26T18:13:04.296Z,9.20
2019-03-26T18:15:35.926Z,9.20
2019-03-26T18:18:05.710Z,9.20
2019-03-26T18:20:37.039Z,9.20
2019-03-26T18:23:07.364Z,9.20
2019-03-26T18:25:37.139Z,9.20
2019-03-26T18:28:07.108Z,9.20
2019-03-26T18:30:38.672Z,9.20
2019-03-26T18:33:08.435Z,9.30
2019-03-26T18:35:38.290Z,9.20
2019-03-26T18:38:08.255Z,9.10
2019-03-26T18:40:38.113Z,9.10
2019-03-26T18:43:08.121Z,9.10
2019-03-26T18:45:38.132Z,9.10
2019-03-26T18:48:07.932Z,9.20
2019-03-26T18:50:40.726Z,9.20
2019-03-26T18:53:10.448Z,9.20
2019-03-26T18:55:40.458Z,9.20
2019-03-26T18:58:10.338Z,9.10
2019-03-26T19:00:40.554Z,9.10
2019-03-26T19:03:10.476Z,9.10
2019-03-26T19:05:40.486Z,9.10
2019-03-26T19:08:10.284Z,9.10
2019-03-26T19:10:40.026Z,9.20
2019-03-26T19:13:19.223Z,10.40
2019-03-26T19:15:41.334Z,11.00
2019-03-26T19:18:11.207Z,11.40
2019-03-26T19:20:41.578Z,11.70
2019-03-26T19:23:12.358Z,11.40
2019-03-26T19:28:41.293Z,10.50
2019-03-26T19:31:11.159Z,10.50
2019-03-26T19:33:41.837Z,10.30
2019-03-26T19:36:11.614Z,10.10
2019-03-26T19:38:41.476Z,9.90
2019-03-26T19:41:11.302Z,9.80
2019-03-26T19:43:41.225Z,9.60
2019-03-26T19:46:11.491Z,9.50
2019-03-26T19:48:41.765Z,9.40
2019-03-26T19:51:11.973Z,9.40
2019-03-26T19:53:42.219Z,9.30
2019-03-26T19:56:12.908Z,9.30
2019-03-26T19:58:42.927Z,9.20
2019-03-26T20:01:12.679Z,9.30
2019-03-26T20:03:42.623Z,9.20
2019-03-26T20:06:14.085Z,9.20
2019-03-26T20:08:44.517Z,9.20
2019-03-26T20:11:15.445Z,9.20
2019-03-26T20:13:45.492Z,9.10
2019-03-26T20:16:15.560Z,9.20
2019-03-26T20:18:45.756Z,9.10
2019-03-26T20:21:15.754Z,9.10
2019-03-26T20:23:46.206Z,9.10
2019-03-26T20:26:16.111Z,9.10
2019-03-26T20:28:46.047Z,9.00
2019-03-26T20:31:15.787Z,9.10
2019-03-26T20:33:45.713Z,9.00
2019-03-26T20:36:15.677Z,9.00
2019-03-26T20:38:51.306Z,9.00
2019-03-26T20:41:20.455Z,9.00
2019-03-26T20:43:52.248Z,9.00
2019-03-26T20:46:23.690Z,9.10
2019-03-26T20:48:53.894Z,9.00
2019-03-26T20:51:27.973Z,9.00
2019-03-26T20:53:58.960Z,8.90
2019-03-26T20:56:29.252Z,9.00
2019-03-26T20:59:02.486Z,8.90
2019-03-26T21:01:32.374Z,9.00
2019-03-26T21:04:02.213Z,8.90
2019-03-26T21:06:37.031Z,8.90
2019-03-26T21:09:10.630Z,8.90
2019-03-26T21:11:41.822Z,8.90
2019-03-26T21:14:12.227Z,8.90
2019-03-26T21:16:42.271Z,8.90
2019-03-26T21:19:12.087Z,9.00
2019-03-26T21:21:43.683Z,9.00
2019-03-26T21:24:14.469Z,9.00
2019-03-26T21:26:44.414Z,9.00
2019-03-26T21:29:15.370Z,9.00
2019-03-26T21:31:45.200Z,8.90
2019-03-26T21:34:29.407Z,9.00
2019-03-26T21:36:47.306Z,9.00
2019-03-26T21:39:17.281Z,8.90
2019-03-26T21:41:48.850Z,8.90
2019-03-26T21:44:20.076Z,8.90
2019-03-26T21:46:53.886Z,8.90
2019-03-26T21:49:23.618Z,8.90
2019-03-26T21:51:53.405Z,8.90
2019-03-26T21:54:23.539Z,8.90
2019-03-26T21:56:53.634Z,9.00
2019-03-26T21:59:23.610Z,9.00
2019-03-26T22:01:53.455Z,8.90
2019-03-26T22:04:23.197Z,8.90
2019-03-26T22:06:53.003Z,8.90
2019-03-26T22:09:22.869Z,8.90
2019-03-26T22:11:52.566Z,8.90
2019-03-26T22:14:22.269Z,8.90
2019-03-26T22:16:52.176Z,8.90
2019-03-26T22:19:28.488Z,8.90
2019-03-26T22:21:53.539Z,8.90
2019-03-26T22:24:23.371Z,8.90
2019-03-26T22:26:53.093Z,9.00
2019-03-26T22:29:22.864Z,9.00
2019-03-26T22:31:52.527Z,9.00
2019-03-26T22:34:22.357Z,9.00
2019-03-26T22:36:52.353Z,9.00
2019-03-26T22:39:22.269Z,9.00
2019-03-26T22:41:51.994Z,8.90
2019-03-26T22:44:31.382Z,8.80
2019-03-26T22:46:53.281Z,8.90
2019-03-26T22:49:23.025Z,8.90
2019-03-26T22:51:52.847Z,8.80
2019-03-26T22:54:22.608Z,8.70
2019-03-26T22:56:52.550Z,8.70
2019-03-26T22:59:22.366Z,8.70
2019-03-26T23:01:52.260Z,8.70
2019-03-26T23:04:21.946Z,8.70
2019-03-26T23:06:51.702Z,8.80
2019-03-26T23:09:21.633Z,8.80
2019-03-26T23:11:51.370Z,8.80
2019-03-26T23:14:21.234Z,8.80
2019-03-26T23:16:51.167Z,8.70
2019-03-26T23:19:21.470Z,8.60
2019-03-26T23:21:51.270Z,8.70
2019-03-26T23:24:21.074Z,8.70
2019-03-26T23:26:50.910Z,8.70
2019-03-26T23:29:20.668Z,8.70
2019-03-26T23:31:50.508Z,8.60
2019-03-26T23:34:23.462Z,8.60
2019-03-26T23:36:53.466Z,8.60
2019-03-26T23:39:23.275Z,8.60
2019-03-26T23:41:53.066Z,8.60
2019-03-26T23:44:26.219Z,8.50
2019-03-26T23:46:54.466Z,8.50
2019-03-26T23:49:24.234Z,8.40
2019-03-26T23:51:53.995Z,8.30
2019-03-26T23:54:23.838Z,8.20
2019-03-26T23:56:53.762Z,8.20
2019-03-26T23:59:23.550Z,8.10
